sensor_id;sensor_type;location;lat;lon;timestamp;temperature;humidity
18047;DHT22;9148;51.454;13.862;2023-07-31T00:02:23;14.60;99.90
18047;DHT22;9148;51.454;13.862;2023-07-31T00:04:49;14.50;99.90
18047;DHT22;9148;51.454;13.862;2023-07-31T00:07:15;14.50;99.90
18047;DHT22;9148;51.454;13.862;2023-07-31T00:09:40;14.50;99.90
18047;DHT22;9148;51.454;13.862;2023-07-31T00:12:06;14.50;99.90
18047;DHT22;9148;51.454;13.862;2023-07-31T00:14:32;14.40;99.90
18047;DHT22;9148;51.454;13.862;2023-07-31T00:16:58;14.40;99.90
18047;DHT22;9148;51.454;13.862;2023-07-31T00:19:23;14.40;99.90
18047;DHT22;9148;51.454;13.862;2023-07-31T00:21:49;14.30;99.90
18047;DHT22;9148;51.454;13.862;2023-07-31T00:24:15;14.30;99.90
18047;DHT22;9148;51.454;13.862;2023-07-31T00:26:40;14.30;99.90
18047;DHT22;9148;51.454;13.862;2023-07-31T00:29:06;14.30;99.90
18047;DHT22;9148;51.454;13.862;2023-07-31T00:31:31;14.30;99.90
18047;DHT22;9148;51.454;13.862;2023-07-31T00:33:57;14.20;99.90
18047;DHT22;9148;51.454;13.862;2023-07-31T00:36:23;14.20;99.90
18047;DHT22;9148;51.454;13.862;2023-07-31T00:38:48;14.20;99.90
18047;DHT22;9148;51.454;13.862;2023-07-31T00:41:14;14.30;99.90
18047;DHT22;9148;51.454;13.862;2023-07-31T00:43:40;14.30;99.90
18047;DHT22;9148;51.454;13.862;2023-07-31T00:46:06;14.30;99.90
18047;DHT22;9148;51.454;13.862;2023-07-31T00:48:32;14.30;99.90
18047;DHT22;9148;51.454;13.862;2023-07-31T00:50:59;14.30;99.90
18047;DHT22;9148;51.454;13.862;2023-07-31T00:53:26;14.30;99.90
18047;DHT22;9148;51.454;13.862;2023-07-31T00:55:53;14.40;99.90
18047;DHT22;9148;51.454;13.862;2023-07-31T00:58:18;14.30;99.90
18047;DHT22;9148;51.454;13.862;2023-07-31T01:00:44;14.30;99.90
18047;DHT22;9148;51.454;13.862;2023-07-31T01:03:10;14.30;99.90
18047;DHT22;9148;51.454;13.862;2023-07-31T01:05:46;14.30;99.90
18047;DHT22;9148;51.454;13.862;2023-07-31T01:11:22;14.30;99.90
18047;DHT22;9148;51.454;13.862;2023-07-31T01:13:54;14.20;99.90
18047;DHT22;9148;51.454;13.862;2023-07-31T01:16:20;14.20;99.90
18047;DHT22;9148;51.454;13.862;2023-07-31T01:18:46;14.00;99.90
18047;DHT22;9148;51.454;13.862;2023-07-31T01:21:35;14.10;99.90
18047;DHT22;9148;51.454;13.862;2023-07-31T01:24:28;14.10;99.90
18047;DHT22;9148;51.454;13.862;2023-07-31T01:26:58;14.20;99.90
18047;DHT22;9148;51.454;13.862;2023-07-31T01:29:49;14.10;99.90
18047;DHT22;9148;51.454;13.862;2023-07-31T01:32:21;14.10;99.90
18047;DHT22;9148;51.454;13.862;2023-07-31T01:34:48;14.20;99.90
18047;DHT22;9148;51.454;13.862;2023-07-31T01:37:14;14.10;99.90
18047;DHT22;9148;51.454;13.862;2023-07-31T01:39:40;14.10;99.90
18047;DHT22;9148;51.454;13.862;2023-07-31T01:42:06;14.20;99.90
18047;DHT22;9148;51.454;13.862;2023-07-31T01:44:32;14.20;99.90
18047;DHT22;9148;51.454;13.862;2023-07-31T01:46:58;14.20;99.90
18047;DHT22;9148;51.454;13.862;2023-07-31T01:49:25;14.30;99.90
18047;DHT22;9148;51.454;13.862;2023-07-31T01:51:51;14.30;99.90
18047;DHT22;9148;51.454;13.862;2023-07-31T01:54:17;14.30;99.90
18047;DHT22;9148;51.454;13.862;2023-07-31T01:56:42;14.30;99.90
18047;DHT22;9148;51.454;13.862;2023-07-31T01:59:08;14.40;99.90
18047;DHT22;9148;51.454;13.862;2023-07-31T02:01:34;14.40;99.90
18047;DHT22;9148;51.454;13.862;2023-07-31T02:03:59;14.50;99.90
18047;DHT22;9148;51.454;13.862;2023-07-31T02:06:26;14.50;99.90
18047;DHT22;9148;51.454;13.862;2023-07-31T02:08:52;14.50;99.90
18047;DHT22;9148;51.454;13.862;2023-07-31T02:11:18;14.50;99.90
18047;DHT22;9148;51.454;13.862;2023-07-31T02:13:43;14.60;99.90
18047;DHT22;9148;51.454;13.862;2023-07-31T02:16:09;14.60;99.90
18047;DHT22;9148;51.454;13.862;2023-07-31T02:18:34;14.60;99.90
18047;DHT22;9148;51.454;13.862;2023-07-31T02:21:00;14.60;99.90
18047;DHT22;9148;51.454;13.862;2023-07-31T02:23:26;14.60;99.90
18047;DHT22;9148;51.454;13.862;2023-07-31T02:25:51;14.60;99.90
18047;DHT22;9148;51.454;13.862;2023-07-31T02:28:17;14.60;99.90
18047;DHT22;9148;51.454;13.862;2023-07-31T02:30:44;14.60;99.90
18047;DHT22;9148;51.454;13.862;2023-07-31T02:33:14;14.60;99.90
18047;DHT22;9148;51.454;13.862;2023-07-31T02:35:40;14.60;99.90
18047;DHT22;9148;51.454;13.862;2023-07-31T02:38:06;14.60;99.90
18047;DHT22;9148;51.454;13.862;2023-07-31T02:40:31;14.60;99.90
18047;DHT22;9148;51.454;13.862;2023-07-31T02:42:57;14.70;99.90
18047;DHT22;9148;51.454;13.862;2023-07-31T02:45:23;14.70;99.90
18047;DHT22;9148;51.454;13.862;2023-07-31T02:47:48;14.70;99.90
18047;DHT22;9148;51.454;13.862;2023-07-31T02:50:14;14.80;99.90
18047;DHT22;9148;51.454;13.862;2023-07-31T02:52:40;14.80;99.90
18047;DHT22;9148;51.454;13.862;2023-07-31T02:55:06;14.80;99.90
18047;DHT22;9148;51.454;13.862;2023-07-31T02:57:32;14.80;99.90
18047;DHT22;9148;51.454;13.862;2023-07-31T02:59:57;14.90;99.90
18047;DHT22;9148;51.454;13.862;2023-07-31T03:02:23;14.90;99.90
18047;DHT22;9148;51.454;13.862;2023-07-31T03:04:49;14.90;99.90
18047;DHT22;9148;51.454;13.862;2023-07-31T03:07:14;14.90;99.90
18047;DHT22;9148;51.454;13.862;2023-07-31T03:09:40;15.00;99.90
18047;DHT22;9148;51.454;13.862;2023-07-31T03:12:06;15.00;99.90
18047;DHT22;9148;51.454;13.862;2023-07-31T03:14:32;15.00;99.90
18047;DHT22;9148;51.454;13.862;2023-07-31T03:16:59;15.00;99.90
18047;DHT22;9148;51.454;13.862;2023-07-31T03:19:25;15.00;99.90
18047;DHT22;9148;51.454;13.862;2023-07-31T03:21:50;15.10;99.90
18047;DHT22;9148;51.454;13.862;2023-07-31T03:24:16;15.10;99.90
18047;DHT22;9148;51.454;13.862;2023-07-31T03:26:41;15.20;99.90
18047;DHT22;9148;51.454;13.862;2023-07-31T03:29:08;15.20;99.90
18047;DHT22;9148;51.454;13.862;2023-07-31T03:31:33;15.20;99.90
18047;DHT22;9148;51.454;13.862;2023-07-31T03:33:59;15.30;99.90
18047;DHT22;9148;51.454;13.862;2023-07-31T03:36:25;15.30;99.90
18047;DHT22;9148;51.454;13.862;2023-07-31T03:38:51;15.40;99.90
18047;DHT22;9148;51.454;13.862;2023-07-31T03:41:17;15.40;99.90
18047;DHT22;9148;51.454;13.862;2023-07-31T03:43:43;15.50;99.90
18047;DHT22;9148;51.454;13.862;2023-07-31T03:46:09;15.50;99.90
18047;DHT22;9148;51.454;13.862;2023-07-31T03:48:34;15.50;99.90
18047;DHT22;9148;51.454;13.862;2023-07-31T03:51:00;15.60;99.90
18047;DHT22;9148;51.454;13.862;2023-07-31T03:53:28;15.70;99.90
18047;DHT22;9148;51.454;13.862;2023-07-31T03:55:54;15.70;99.90
18047;DHT22;9148;51.454;13.862;2023-07-31T03:58:20;15.80;99.90
18047;DHT22;9148;51.454;13.862;2023-07-31T04:00:46;15.80;99.90
18047;DHT22;9148;51.454;13.862;2023-07-31T04:03:12;15.90;99.90
18047;DHT22;9148;51.454;13.862;2023-07-31T04:05:38;15.90;99.90
18047;DHT22;9148;51.454;13.862;2023-07-31T04:08:05;15.90;99.90
18047;DHT22;9148;51.454;13.862;2023-07-31T04:10:30;15.80;99.90
18047;DHT22;9148;51.454;13.862;2023-07-31T04:12:58;15.70;99.90
18047;DHT22;9148;51.454;13.862;2023-07-31T04:15:25;15.70;99.90
18047;DHT22;9148;51.454;13.862;2023-07-31T04:17:51;15.60;99.90
18047;DHT22;9148;51.454;13.862;2023-07-31T04:20:17;15.60;99.90
18047;DHT22;9148;51.454;13.862;2023-07-31T04:22:42;15.50;99.90
18047;DHT22;9148;51.454;13.862;2023-07-31T04:25:08;15.40;99.90
18047;DHT22;9148;51.454;13.862;2023-07-31T04:27:34;15.40;99.90
18047;DHT22;9148;51.454;13.862;2023-07-31T04:29:59;15.30;99.90
18047;DHT22;9148;51.454;13.862;2023-07-31T04:32:25;15.20;99.90
18047;DHT22;9148;51.454;13.862;2023-07-31T04:34:51;15.10;99.90
18047;DHT22;9148;51.454;13.862;2023-07-31T04:37:16;15.10;99.90
18047;DHT22;9148;51.454;13.862;2023-07-31T04:39:42;15.10;99.90
18047;DHT22;9148;51.454;13.862;2023-07-31T04:42:08;15.10;99.90
18047;DHT22;9148;51.454;13.862;2023-07-31T04:44:33;15.10;99.90
18047;DHT22;9148;51.454;13.862;2023-07-31T04:46:59;15.10;99.90
18047;DHT22;9148;51.454;13.862;2023-07-31T04:49:25;15.10;99.90
18047;DHT22;9148;51.454;13.862;2023-07-31T04:51:50;15.10;99.90
18047;DHT22;9148;51.454;13.862;2023-07-31T04:54:16;15.10;99.90
18047;DHT22;9148;51.454;13.862;2023-07-31T04:56:42;15.10;99.90
18047;DHT22;9148;51.454;13.862;2023-07-31T04:59:08;15.00;99.90
18047;DHT22;9148;51.454;13.862;2023-07-31T05:01:33;15.10;99.90
18047;DHT22;9148;51.454;13.862;2023-07-31T05:03:59;15.10;99.90
18047;DHT22;9148;51.454;13.862;2023-07-31T05:06:25;15.10;99.90
18047;DHT22;9148;51.454;13.862;2023-07-31T05:08:50;15.10;99.90
18047;DHT22;9148;51.454;13.862;2023-07-31T05:11:16;15.10;99.90
18047;DHT22;9148;51.454;13.862;2023-07-31T05:13:42;15.10;99.90
18047;DHT22;9148;51.454;13.862;2023-07-31T05:16:07;15.10;99.90
18047;DHT22;9148;51.454;13.862;2023-07-31T05:18:33;15.10;99.90
18047;DHT22;9148;51.454;13.862;2023-07-31T05:20:58;15.10;99.90
18047;DHT22;9148;51.454;13.862;2023-07-31T05:23:24;15.10;99.90
18047;DHT22;9148;51.454;13.862;2023-07-31T05:26:04;15.10;99.90
18047;DHT22;9148;51.454;13.862;2023-07-31T05:28:35;15.20;99.90
18047;DHT22;9148;51.454;13.862;2023-07-31T05:31:02;15.10;99.90
18047;DHT22;9148;51.454;13.862;2023-07-31T05:33:28;15.20;99.90
18047;DHT22;9148;51.454;13.862;2023-07-31T05:35:54;15.20;99.90
18047;DHT22;9148;51.454;13.862;2023-07-31T05:38:19;15.30;99.90
18047;DHT22;9148;51.454;13.862;2023-07-31T05:40:45;15.20;99.90
18047;DHT22;9148;51.454;13.862;2023-07-31T05:43:12;15.20;99.90
18047;DHT22;9148;51.454;13.862;2023-07-31T05:45:37;15.20;99.90
18047;DHT22;9148;51.454;13.862;2023-07-31T05:48:03;15.30;99.90
18047;DHT22;9148;51.454;13.862;2023-07-31T05:50:30;15.30;99.90
18047;DHT22;9148;51.454;13.862;2023-07-31T05:52:56;15.30;99.90
18047;DHT22;9148;51.454;13.862;2023-07-31T05:55:21;15.40;99.90
18047;DHT22;9148;51.454;13.862;2023-07-31T05:57:47;15.40;99.90
18047;DHT22;9148;51.454;13.862;2023-07-31T06:00:15;15.40;99.90
18047;DHT22;9148;51.454;13.862;2023-07-31T06:02:41;15.40;99.90
18047;DHT22;9148;51.454;13.862;2023-07-31T06:05:07;15.50;99.90
18047;DHT22;9148;51.454;13.862;2023-07-31T06:07:33;15.50;99.90
18047;DHT22;9148;51.454;13.862;2023-07-31T06:09:58;15.50;99.90
18047;DHT22;9148;51.454;13.862;2023-07-31T06:12:30;15.50;99.90
18047;DHT22;9148;51.454;13.862;2023-07-31T06:14:59;15.60;99.90
18047;DHT22;9148;51.454;13.862;2023-07-31T06:17:25;15.60;99.90
18047;DHT22;9148;51.454;13.862;2023-07-31T06:19:51;15.60;99.90
18047;DHT22;9148;51.454;13.862;2023-07-31T06:22:17;15.70;99.90
18047;DHT22;9148;51.454;13.862;2023-07-31T06:24:43;15.70;99.90
18047;DHT22;9148;51.454;13.862;2023-07-31T06:27:10;15.70;99.90
18047;DHT22;9148;51.454;13.862;2023-07-31T06:29:36;15.70;99.90
18047;DHT22;9148;51.454;13.862;2023-07-31T06:32:02;15.70;99.90
18047;DHT22;9148;51.454;13.862;2023-07-31T06:34:28;15.70;99.90
18047;DHT22;9148;51.454;13.862;2023-07-31T06:36:56;15.60;99.90
18047;DHT22;9148;51.454;13.862;2023-07-31T06:39:21;15.60;99.90
18047;DHT22;9148;51.454;13.862;2023-07-31T06:41:47;15.60;99.90
18047;DHT22;9148;51.454;13.862;2023-07-31T06:44:13;15.50;99.90
18047;DHT22;9148;51.454;13.862;2023-07-31T06:46:38;15.50;99.90
18047;DHT22;9148;51.454;13.862;2023-07-31T06:49:04;15.50;99.90
18047;DHT22;9148;51.454;13.862;2023-07-31T06:51:30;15.50;99.90
18047;DHT22;9148;51.454;13.862;2023-07-31T06:53:59;15.60;99.90
18047;DHT22;9148;51.454;13.862;2023-07-31T06:56:25;15.60;99.90
18047;DHT22;9148;51.454;13.862;2023-07-31T06:58:51;15.60;99.90
18047;DHT22;9148;51.454;13.862;2023-07-31T07:01:17;15.60;99.90
18047;DHT22;9148;51.454;13.862;2023-07-31T07:03:42;15.70;99.90
18047;DHT22;9148;51.454;13.862;2023-07-31T07:06:08;15.80;99.90
18047;DHT22;9148;51.454;13.862;2023-07-31T07:08:34;15.70;99.90
18047;DHT22;9148;51.454;13.862;2023-07-31T07:10:59;15.70;99.90
18047;DHT22;9148;51.454;13.862;2023-07-31T07:13:25;15.70;99.90
18047;DHT22;9148;51.454;13.862;2023-07-31T07:15:51;15.70;99.90
18047;DHT22;9148;51.454;13.862;2023-07-31T07:18:17;15.70;99.90
18047;DHT22;9148;51.454;13.862;2023-07-31T07:20:50;15.70;99.90
18047;DHT22;9148;51.454;13.862;2023-07-31T07:23:16;15.70;99.90
18047;DHT22;9148;51.454;13.862;2023-07-31T07:25:43;15.80;99.90
18047;DHT22;9148;51.454;13.862;2023-07-31T07:28:09;15.80;99.90
18047;DHT22;9148;51.454;13.862;2023-07-31T07:30:35;15.80;99.90
18047;DHT22;9148;51.454;13.862;2023-07-31T07:33:01;15.80;99.90
18047;DHT22;9148;51.454;13.862;2023-07-31T07:35:26;15.80;99.90
18047;DHT22;9148;51.454;13.862;2023-07-31T07:37:52;15.80;99.90
18047;DHT22;9148;51.454;13.862;2023-07-31T07:40:19;15.80;99.90
18047;DHT22;9148;51.454;13.862;2023-07-31T07:42:49;15.80;99.90
18047;DHT22;9148;51.454;13.862;2023-07-31T07:45:15;15.80;99.90
18047;DHT22;9148;51.454;13.862;2023-07-31T07:47:41;15.80;99.90
18047;DHT22;9148;51.454;13.862;2023-07-31T07:50:08;15.90;99.90
18047;DHT22;9148;51.454;13.862;2023-07-31T07:52:34;16.00;99.90
18047;DHT22;9148;51.454;13.862;2023-07-31T07:54:59;16.00;99.90
18047;DHT22;9148;51.454;13.862;2023-07-31T07:57:26;16.10;99.90
18047;DHT22;9148;51.454;13.862;2023-07-31T07:59:52;16.20;99.90
18047;DHT22;9148;51.454;13.862;2023-07-31T08:02:17;16.20;99.90
18047;DHT22;9148;51.454;13.862;2023-07-31T08:04:43;16.50;99.90
18047;DHT22;9148;51.454;13.862;2023-07-31T08:07:12;16.60;99.90
18047;DHT22;9148;51.454;13.862;2023-07-31T08:09:38;16.80;99.90
18047;DHT22;9148;51.454;13.862;2023-07-31T08:12:05;17.00;99.90
18047;DHT22;9148;51.454;13.862;2023-07-31T08:14:31;17.10;99.90
18047;DHT22;9148;51.454;13.862;2023-07-31T08:16:57;17.30;99.90
18047;DHT22;9148;51.454;13.862;2023-07-31T08:19:23;17.50;99.90
18047;DHT22;9148;51.454;13.862;2023-07-31T08:21:48;17.70;99.90
18047;DHT22;9148;51.454;13.862;2023-07-31T08:24:14;17.80;99.90
18047;DHT22;9148;51.454;13.862;2023-07-31T08:26:40;18.00;99.90
18047;DHT22;9148;51.454;13.862;2023-07-31T08:29:05;18.10;99.90
18047;DHT22;9148;51.454;13.862;2023-07-31T08:31:31;18.10;99.90
18047;DHT22;9148;51.454;13.862;2023-07-31T08:33:57;18.30;99.90
18047;DHT22;9148;51.454;13.862;2023-07-31T08:36:22;18.30;99.90
18047;DHT22;9148;51.454;13.862;2023-07-31T08:38:48;18.40;99.90
18047;DHT22;9148;51.454;13.862;2023-07-31T08:41:15;18.40;99.90
18047;DHT22;9148;51.454;13.862;2023-07-31T08:43:44;18.50;99.90
18047;DHT22;9148;51.454;13.862;2023-07-31T08:46:11;18.60;99.90
18047;DHT22;9148;51.454;13.862;2023-07-31T08:48:37;18.60;99.90
18047;DHT22;9148;51.454;13.862;2023-07-31T08:51:06;18.60;99.90
18047;DHT22;9148;51.454;13.862;2023-07-31T08:53:32;18.60;99.90
18047;DHT22;9148;51.454;13.862;2023-07-31T08:55:58;18.60;99.90
18047;DHT22;9148;51.454;13.862;2023-07-31T08:58:25;18.60;99.90
18047;DHT22;9148;51.454;13.862;2023-07-31T09:00:53;18.60;99.90
18047;DHT22;9148;51.454;13.862;2023-07-31T09:03:21;18.70;99.90
18047;DHT22;9148;51.454;13.862;2023-07-31T09:05:50;18.70;99.90
18047;DHT22;9148;51.454;13.862;2023-07-31T09:08:19;18.70;99.90
18047;DHT22;9148;51.454;13.862;2023-07-31T09:10:46;18.80;99.90
18047;DHT22;9148;51.454;13.862;2023-07-31T09:13:13;18.80;99.90
18047;DHT22;9148;51.454;13.862;2023-07-31T09:15:40;18.90;99.90
18047;DHT22;9148;51.454;13.862;2023-07-31T09:18:07;18.90;99.90
18047;DHT22;9148;51.454;13.862;2023-07-31T09:20:33;19.00;99.90
18047;DHT22;9148;51.454;13.862;2023-07-31T09:23:09;19.10;99.90
18047;DHT22;9148;51.454;13.862;2023-07-31T09:25:37;19.20;99.90
18047;DHT22;9148;51.454;13.862;2023-07-31T09:28:09;19.20;99.90
18047;DHT22;9148;51.454;13.862;2023-07-31T09:30:50;19.30;99.90
18047;DHT22;9148;51.454;13.862;2023-07-31T09:33:17;19.30;99.90
18047;DHT22;9148;51.454;13.862;2023-07-31T09:35:44;19.50;99.90
18047;DHT22;9148;51.454;13.862;2023-07-31T09:38:12;19.60;99.90
18047;DHT22;9148;51.454;13.862;2023-07-31T09:40:38;19.80;99.90
18047;DHT22;9148;51.454;13.862;2023-07-31T09:43:10;19.90;99.90
18047;DHT22;9148;51.454;13.862;2023-07-31T09:45:42;20.00;99.90
18047;DHT22;9148;51.454;13.862;2023-07-31T09:48:15;20.00;99.90
18047;DHT22;9148;51.454;13.862;2023-07-31T09:50:43;19.90;99.90
18047;DHT22;9148;51.454;13.862;2023-07-31T09:53:14;19.80;99.90
18047;DHT22;9148;51.454;13.862;2023-07-31T09:55:41;19.80;99.90
18047;DHT22;9148;51.454;13.862;2023-07-31T09:58:09;19.80;99.90
18047;DHT22;9148;51.454;13.862;2023-07-31T10:00:36;19.80;99.90
18047;DHT22;9148;51.454;13.862;2023-07-31T10:03:06;19.80;99.90
18047;DHT22;9148;51.454;13.862;2023-07-31T10:05:38;19.80;99.90
18047;DHT22;9148;51.454;13.862;2023-07-31T10:08:07;19.80;99.90
18047;DHT22;9148;51.454;13.862;2023-07-31T10:10:36;19.80;99.90
18047;DHT22;9148;51.454;13.862;2023-07-31T10:13:02;19.90;99.90
18047;DHT22;9148;51.454;13.862;2023-07-31T10:15:29;19.90;99.90
18047;DHT22;9148;51.454;13.862;2023-07-31T10:17:56;20.00;99.90
18047;DHT22;9148;51.454;13.862;2023-07-31T10:20:22;20.10;99.90
18047;DHT22;9148;51.454;13.862;2023-07-31T10:22:49;20.20;99.90
18047;DHT22;9148;51.454;13.862;2023-07-31T10:25:18;20.20;99.90
18047;DHT22;9148;51.454;13.862;2023-07-31T10:27:45;20.30;99.90
18047;DHT22;9148;51.454;13.862;2023-07-31T10:30:15;20.40;99.90
18047;DHT22;9148;51.454;13.862;2023-07-31T10:32:44;20.30;99.90
18047;DHT22;9148;51.454;13.862;2023-07-31T10:35:11;20.30;99.90
18047;DHT22;9148;51.454;13.862;2023-07-31T10:37:39;20.40;99.90
18047;DHT22;9148;51.454;13.862;2023-07-31T10:40:19;20.30;99.90
18047;DHT22;9148;51.454;13.862;2023-07-31T10:42:50;20.30;99.90
18047;DHT22;9148;51.454;13.862;2023-07-31T10:45:38;20.30;99.90
18047;DHT22;9148;51.454;13.862;2023-07-31T10:48:07;20.30;99.90
18047;DHT22;9148;51.454;13.862;2023-07-31T10:50:45;20.30;99.90
18047;DHT22;9148;51.454;13.862;2023-07-31T10:55:58;20.40;99.90
18047;DHT22;9148;51.454;13.862;2023-07-31T10:58:25;20.40;99.90
18047;DHT22;9148;51.454;13.862;2023-07-31T11:00:55;20.40;99.90
18047;DHT22;9148;51.454;13.862;2023-07-31T11:03:47;20.40;99.90
18047;DHT22;9148;51.454;13.862;2023-07-31T11:06:17;20.50;99.90
18047;DHT22;9148;51.454;13.862;2023-07-31T11:08:45;20.50;99.90
18047;DHT22;9148;51.454;13.862;2023-07-31T11:11:14;20.60;99.90
18047;DHT22;9148;51.454;13.862;2023-07-31T11:16:14;20.60;99.90
18047;DHT22;9148;51.454;13.862;2023-07-31T11:18:41;20.50;99.90
18047;DHT22;9148;51.454;13.862;2023-07-31T11:21:12;20.70;99.90
18047;DHT22;9148;51.454;13.862;2023-07-31T11:23:39;20.80;99.90
18047;DHT22;9148;51.454;13.862;2023-07-31T11:26:05;20.90;99.90
18047;DHT22;9148;51.454;13.862;2023-07-31T11:28:33;21.00;99.90
18047;DHT22;9148;51.454;13.862;2023-07-31T11:31:00;21.10;99.90
18047;DHT22;9148;51.454;13.862;2023-07-31T11:33:26;21.20;99.90
18047;DHT22;9148;51.454;13.862;2023-07-31T11:35:52;21.40;99.90
18047;DHT22;9148;51.454;13.862;2023-07-31T11:38:24;21.50;99.90
18047;DHT22;9148;51.454;13.862;2023-07-31T11:40:54;21.50;99.90
18047;DHT22;9148;51.454;13.862;2023-07-31T11:43:24;21.50;99.30
18047;DHT22;9148;51.454;13.862;2023-07-31T11:45:53;21.40;99.90
18047;DHT22;9148;51.454;13.862;2023-07-31T11:48:26;21.40;99.90
18047;DHT22;9148;51.454;13.862;2023-07-31T11:51:00;21.40;99.50
18047;DHT22;9148;51.454;13.862;2023-07-31T11:53:30;21.40;99.70
18047;DHT22;9148;51.454;13.862;2023-07-31T11:56:00;21.50;99.50
18047;DHT22;9148;51.454;13.862;2023-07-31T11:58:27;21.50;99.20
18047;DHT22;9148;51.454;13.862;2023-07-31T12:00:53;21.60;99.30
18047;DHT22;9148;51.454;13.862;2023-07-31T12:03:19;21.70;99.30
18047;DHT22;9148;51.454;13.862;2023-07-31T12:05:47;21.70;98.80
18047;DHT22;9148;51.454;13.862;2023-07-31T12:08:13;21.80;98.90
18047;DHT22;9148;51.454;13.862;2023-07-31T12:10:39;21.80;98.60
18047;DHT22;9148;51.454;13.862;2023-07-31T12:13:20;21.80;98.70
18047;DHT22;9148;51.454;13.862;2023-07-31T12:15:48;21.80;98.50
18047;DHT22;9148;51.454;13.862;2023-07-31T12:18:16;21.80;98.50
18047;DHT22;9148;51.454;13.862;2023-07-31T12:20:49;22.00;98.70
18047;DHT22;9148;51.454;13.862;2023-07-31T12:23:21;22.10;98.20
18047;DHT22;9148;51.454;13.862;2023-07-31T12:26:09;22.20;98.10
18047;DHT22;9148;51.454;13.862;2023-07-31T12:28:41;22.40;97.40
18047;DHT22;9148;51.454;13.862;2023-07-31T12:31:18;22.40;96.40
18047;DHT22;9148;51.454;13.862;2023-07-31T12:33:46;22.50;96.50
18047;DHT22;9148;51.454;13.862;2023-07-31T12:36:15;22.50;96.00
18047;DHT22;9148;51.454;13.862;2023-07-31T12:38:42;22.60;96.40
18047;DHT22;9148;51.454;13.862;2023-07-31T12:41:08;22.70;96.30
18047;DHT22;9148;51.454;13.862;2023-07-31T12:43:35;22.60;96.30
18047;DHT22;9148;51.454;13.862;2023-07-31T12:46:02;22.70;96.20
18047;DHT22;9148;51.454;13.862;2023-07-31T12:48:28;22.70;96.30
18047;DHT22;9148;51.454;13.862;2023-07-31T12:50:54;22.80;96.20
18047;DHT22;9148;51.454;13.862;2023-07-31T12:53:20;22.90;95.70
18047;DHT22;9148;51.454;13.862;2023-07-31T12:55:46;22.90;95.70
18047;DHT22;9148;51.454;13.862;2023-07-31T12:58:12;22.90;95.60
18047;DHT22;9148;51.454;13.862;2023-07-31T13:00:38;23.00;95.30
18047;DHT22;9148;51.454;13.862;2023-07-31T13:03:06;23.20;95.00
18047;DHT22;9148;51.454;13.862;2023-07-31T13:05:32;23.30;94.90
18047;DHT22;9148;51.454;13.862;2023-07-31T13:07:58;23.40;94.70
18047;DHT22;9148;51.454;13.862;2023-07-31T13:10:24;23.30;94.40
18047;DHT22;9148;51.454;13.862;2023-07-31T13:12:52;23.60;93.90
18047;DHT22;9148;51.454;13.862;2023-07-31T13:15:17;23.70;93.70
18047;DHT22;9148;51.454;13.862;2023-07-31T13:17:43;23.80;93.70
18047;DHT22;9148;51.454;13.862;2023-07-31T13:20:09;23.90;93.50
18047;DHT22;9148;51.454;13.862;2023-07-31T13:22:35;23.90;92.50
18047;DHT22;9148;51.454;13.862;2023-07-31T13:25:01;23.90;91.90
18047;DHT22;9148;51.454;13.862;2023-07-31T13:27:27;23.90;92.10
18047;DHT22;9148;51.454;13.862;2023-07-31T13:29:52;23.80;92.40
18047;DHT22;9148;51.454;13.862;2023-07-31T13:32:19;23.80;91.90
18047;DHT22;9148;51.454;13.862;2023-07-31T13:34:46;23.80;90.80
18047;DHT22;9148;51.454;13.862;2023-07-31T13:37:12;23.80;91.20
18047;DHT22;9148;51.454;13.862;2023-07-31T13:39:39;23.90;90.80
18047;DHT22;9148;51.454;13.862;2023-07-31T13:42:06;24.00;90.40
18047;DHT22;9148;51.454;13.862;2023-07-31T13:44:34;24.00;89.60
18047;DHT22;9148;51.454;13.862;2023-07-31T13:47:00;24.00;88.90
18047;DHT22;9148;51.454;13.862;2023-07-31T13:49:26;24.10;90.10
18047;DHT22;9148;51.454;13.862;2023-07-31T13:51:52;24.20;89.40
18047;DHT22;9148;51.454;13.862;2023-07-31T13:54:18;24.30;85.40
18047;DHT22;9148;51.454;13.862;2023-07-31T13:56:44;24.30;83.70
18047;DHT22;9148;51.454;13.862;2023-07-31T13:59:10;24.10;84.70
18047;DHT22;9148;51.454;13.862;2023-07-31T14:01:37;24.00;84.70
18047;DHT22;9148;51.454;13.862;2023-07-31T14:04:02;24.00;83.80
18047;DHT22;9148;51.454;13.862;2023-07-31T14:06:28;23.90;84.40
18047;DHT22;9148;51.454;13.862;2023-07-31T14:08:54;23.80;84.30
18047;DHT22;9148;51.454;13.862;2023-07-31T14:11:21;23.80;84.80
18047;DHT22;9148;51.454;13.862;2023-07-31T14:13:47;23.90;85.80
18047;DHT22;9148;51.454;13.862;2023-07-31T14:16:13;24.00;84.90
18047;DHT22;9148;51.454;13.862;2023-07-31T14:18:38;24.20;84.30
18047;DHT22;9148;51.454;13.862;2023-07-31T14:21:04;24.30;85.10
18047;DHT22;9148;51.454;13.862;2023-07-31T14:23:30;24.50;84.30
18047;DHT22;9148;51.454;13.862;2023-07-31T14:25:56;24.70;83.90
18047;DHT22;9148;51.454;13.862;2023-07-31T14:28:21;24.80;83.30
18047;DHT22;9148;51.454;13.862;2023-07-31T14:30:47;24.80;82.30
18047;DHT22;9148;51.454;13.862;2023-07-31T14:33:13;24.80;82.00
18047;DHT22;9148;51.454;13.862;2023-07-31T14:35:38;24.80;82.70
18047;DHT22;9148;51.454;13.862;2023-07-31T14:38:04;24.80;82.10
18047;DHT22;9148;51.454;13.862;2023-07-31T14:40:29;24.80;82.90
18047;DHT22;9148;51.454;13.862;2023-07-31T14:42:55;24.70;82.40
18047;DHT22;9148;51.454;13.862;2023-07-31T14:45:21;24.80;81.70
18047;DHT22;9148;51.454;13.862;2023-07-31T14:47:46;24.80;80.70
18047;DHT22;9148;51.454;13.862;2023-07-31T14:50:12;24.80;80.30
18047;DHT22;9148;51.454;13.862;2023-07-31T14:52:38;24.90;80.00
18047;DHT22;9148;51.454;13.862;2023-07-31T14:55:04;24.90;79.60
18047;DHT22;9148;51.454;13.862;2023-07-31T14:57:30;24.90;80.20
18047;DHT22;9148;51.454;13.862;2023-07-31T14:59:55;24.90;80.50
18047;DHT22;9148;51.454;13.862;2023-07-31T15:02:21;24.80;79.60
18047;DHT22;9148;51.454;13.862;2023-07-31T15:04:47;23.90;80.00
18047;DHT22;9148;51.454;13.862;2023-07-31T15:07:12;24.70;81.40
18047;DHT22;9148;51.454;13.862;2023-07-31T15:09:39;24.80;82.20
18047;DHT22;9148;51.454;13.862;2023-07-31T15:12:05;24.90;81.00
18047;DHT22;9148;51.454;13.862;2023-07-31T15:14:31;24.90;78.90
18047;DHT22;9148;51.454;13.862;2023-07-31T15:16:57;24.80;77.40
18047;DHT22;9148;51.454;13.862;2023-07-31T15:19:22;24.80;76.40
18047;DHT22;9148;51.454;13.862;2023-07-31T15:21:49;24.80;75.70
18047;DHT22;9148;51.454;13.862;2023-07-31T15:24:15;24.70;76.20
18047;DHT22;9148;51.454;13.862;2023-07-31T15:26:40;24.60;76.70
18047;DHT22;9148;51.454;13.862;2023-07-31T15:29:07;24.60;76.50
18047;DHT22;9148;51.454;13.862;2023-07-31T15:31:45;24.50;76.40
18047;DHT22;9148;51.454;13.862;2023-07-31T15:34:12;24.40;76.50
18047;DHT22;9148;51.454;13.862;2023-07-31T15:36:38;24.40;77.10
18047;DHT22;9148;51.454;13.862;2023-07-31T15:39:04;24.40;76.50